sensor_id;sensor_type;location;lat;lon;timestamp;P1;durP1;ratioP1;P2;durP2;ratioP2
19251;SDS011;9760;50.944;5.304;2022-08-21T00:00:13;7.57;;;2.40;;
19251;SDS011;9760;50.944;5.304;2022-08-21T00:02:49;8.30;;;2.47;;
19251;SDS011;9760;50.944;5.304;2022-08-21T00:05:19;10.13;;;3.30;;
19251;SDS011;9760;50.944;5.304;2022-08-21T00:07:44;9.17;;;2.90;;
19251;SDS011;9760;50.944;5.304;2022-08-21T00:10:11;7.87;;;2.90;;
19251;SDS011;9760;50.944;5.304;2022-08-21T00:12:38;10.17;;;2.80;;
19251;SDS011;9760;50.944;5.304;2022-08-21T00:15:04;6.80;;;2.93;;
19251;SDS011;9760;50.944;5.304;2022-08-21T00:17:31;7.57;;;3.03;;
19251;SDS011;9760;50.944;5.304;2022-08-21T00:19:56;9.80;;;3.23;;
19251;SDS011;9760;50.944;5.304;2022-08-21T00:22:22;9.77;;;3.10;;
19251;SDS011;9760;50.944;5.304;2022-08-21T00:24:47;6.63;;;3.13;;
19251;SDS011;9760;50.944;5.304;2022-08-21T00:27:13;9.27;;;2.80;;
19251;SDS011;9760;50.944;5.304;2022-08-21T00:29:39;8.73;;;3.00;;
19251;SDS011;9760;50.944;5.304;2022-08-21T00:32:04;16.80;;;3.50;;
19251;SDS011;9760;50.944;5.304;2022-08-21T00:34:30;7.80;;;3.13;;
19251;SDS011;9760;50.944;5.304;2022-08-21T00:36:56;11.93;;;3.30;;
19251;SDS011;9760;50.944;5.304;2022-08-21T00:39:21;9.53;;;3.60;;
19251;SDS011;9760;50.944;5.304;2022-08-21T00:41:47;10.00;;;3.17;;
19251;SDS011;9760;50.944;5.304;2022-08-21T00:44:13;10.20;;;3.20;;
19251;SDS011;9760;50.944;5.304;2022-08-21T00:46:40;12.43;;;3.17;;
19251;SDS011;9760;50.944;5.304;2022-08-21T00:49:07;9.90;;;2.90;;
19251;SDS011;9760;50.944;5.304;2022-08-21T00:51:50;7.33;;;2.60;;
19251;SDS011;9760;50.944;5.304;2022-08-21T00:54:19;10.57;;;3.43;;
19251;SDS011;9760;50.944;5.304;2022-08-21T00:56:48;10.50;;;3.00;;
19251;SDS011;9760;50.944;5.304;2022-08-21T00:59:18;8.73;;;2.87;;
19251;SDS011;9760;50.944;5.304;2022-08-21T01:01:45;13.67;;;4.30;;
19251;SDS011;9760;50.944;5.304;2022-08-21T01:04:11;12.67;;;3.27;;
19251;SDS011;9760;50.944;5.304;2022-08-21T01:06:37;11.83;;;3.50;;
19251;SDS011;9760;50.944;5.304;2022-08-21T01:09:03;5.07;;;2.63;;
19251;SDS011;9760;50.944;5.304;2022-08-21T01:11:29;12.17;;;3.30;;
19251;SDS011;9760;50.944;5.304;2022-08-21T01:13:55;11.60;;;3.03;;
19251;SDS011;9760;50.944;5.304;2022-08-21T01:16:21;6.40;;;3.33;;
19251;SDS011;9760;50.944;5.304;2022-08-21T01:18:48;6.23;;;3.00;;
19251;SDS011;9760;50.944;5.304;2022-08-21T01:21:16;12.97;;;3.50;;
19251;SDS011;9760;50.944;5.304;2022-08-21T01:23:46;13.17;;;3.00;;
19251;SDS011;9760;50.944;5.304;2022-08-21T01:26:14;12.50;;;3.60;;
19251;SDS011;9760;50.944;5.304;2022-08-21T01:28:44;11.40;;;3.23;;
19251;SDS011;9760;50.944;5.304;2022-08-21T01:31:14;8.67;;;3.13;;
19251;SDS011;9760;50.944;5.304;2022-08-21T01:33:42;13.67;;;3.20;;
19251;SDS011;9760;50.944;5.304;2022-08-21T01:36:08;9.43;;;3.10;;
19251;SDS011;9760;50.944;5.304;2022-08-21T01:38:33;14.17;;;3.87;;
19251;SDS011;9760;50.944;5.304;2022-08-21T01:40:59;9.20;;;3.37;;
19251;SDS011;9760;50.944;5.304;2022-08-21T01:43:25;6.27;;;2.93;;
19251;SDS011;9760;50.944;5.304;2022-08-21T01:45:51;9.63;;;3.13;;
19251;SDS011;9760;50.944;5.304;2022-08-21T01:48:17;14.10;;;3.50;;
19251;SDS011;9760;50.944;5.304;2022-08-21T01:50:42;11.00;;;3.27;;
19251;SDS011;9760;50.944;5.304;2022-08-21T01:53:08;13.87;;;3.33;;
19251;SDS011;9760;50.944;5.304;2022-08-21T01:55:34;11.23;;;3.43;;
19251;SDS011;9760;50.944;5.304;2022-08-21T01:57:59;8.23;;;2.83;;
19251;SDS011;9760;50.944;5.304;2022-08-21T02:00:26;10.73;;;3.10;;
19251;SDS011;9760;50.944;5.304;2022-08-21T02:02:51;10.47;;;3.27;;
19251;SDS011;9760;50.944;5.304;2022-08-21T02:05:18;13.27;;;3.10;;
19251;SDS011;9760;50.944;5.304;2022-08-21T02:07:45;8.07;;;3.33;;
19251;SDS011;9760;50.944;5.304;2022-08-21T02:10:14;14.40;;;3.80;;
19251;SDS011;9760;50.944;5.304;2022-08-21T02:12:41;8.60;;;3.10;;
19251;SDS011;9760;50.944;5.304;2022-08-21T02:15:07;8.47;;;2.77;;
19251;SDS011;9760;50.944;5.304;2022-08-21T02:17:44;8.37;;;3.20;;
19251;SDS011;9760;50.944;5.304;2022-08-21T02:20:16;11.87;;;3.07;;
19251;SDS011;9760;50.944;5.304;2022-08-21T02:22:47;12.50;;;3.97;;
19251;SDS011;9760;50.944;5.304;2022-08-21T02:25:14;9.30;;;3.20;;
19251;SDS011;9760;50.944;5.304;2022-08-21T02:27:41;13.07;;;3.37;;
19251;SDS011;9760;50.944;5.304;2022-08-21T02:30:12;12.87;;;3.10;;
19251;SDS011;9760;50.944;5.304;2022-08-21T02:32:59;17.07;;;3.57;;
19251;SDS011;9760;50.944;5.304;2022-08-21T02:35:25;9.17;;;3.17;;
19251;SDS011;9760;50.944;5.304;2022-08-21T02:37:53;11.50;;;3.23;;
19251;SDS011;9760;50.944;5.304;2022-08-21T02:40:24;7.47;;;3.30;;
19251;SDS011;9760;50.944;5.304;2022-08-21T02:42:53;9.13;;;3.07;;
19251;SDS011;9760;50.944;5.304;2022-08-21T02:45:19;6.33;;;3.23;;
19251;SDS011;9760;50.944;5.304;2022-08-21T02:48:06;10.37;;;3.33;;
19251;SDS011;9760;50.944;5.304;2022-08-21T02:50:35;10.13;;;3.17;;
19251;SDS011;9760;50.944;5.304;2022-08-21T02:53:07;11.27;;;2.70;;
19251;SDS011;9760;50.944;5.304;2022-08-21T02:55:34;6.00;;;2.90;;
19251;SDS011;9760;50.944;5.304;2022-08-21T02:58:02;10.70;;;4.00;;
19251;SDS011;9760;50.944;5.304;2022-08-21T03:00:30;11.73;;;3.50;;
19251;SDS011;9760;50.944;5.304;2022-08-21T03:02:57;9.43;;;3.17;;
19251;SDS011;9760;50.944;5.304;2022-08-21T03:05:24;12.93;;;2.70;;
19251;SDS011;9760;50.944;5.304;2022-08-21T03:07:51;15.00;;;3.20;;
19251;SDS011;9760;50.944;5.304;2022-08-21T03:10:17;7.70;;;2.83;;
19251;SDS011;9760;50.944;5.304;2022-08-21T03:12:44;7.37;;;2.90;;
19251;SDS011;9760;50.944;5.304;2022-08-21T03:15:11;11.77;;;3.27;;
19251;SDS011;9760;50.944;5.304;2022-08-21T03:17:38;9.20;;;3.30;;
19251;SDS011;9760;50.944;5.304;2022-08-21T03:20:05;12.27;;;2.90;;
19251;SDS011;9760;50.944;5.304;2022-08-21T03:22:32;12.13;;;3.00;;
19251;SDS011;9760;50.944;5.304;2022-08-21T03:24:58;12.60;;;3.13;;
19251;SDS011;9760;50.944;5.304;2022-08-21T03:27:24;8.23;;;3.00;;
19251;SDS011;9760;50.944;5.304;2022-08-21T03:29:51;6.07;;;2.90;;
19251;SDS011;9760;50.944;5.304;2022-08-21T03:32:18;7.73;;;2.57;;
19251;SDS011;9760;50.944;5.304;2022-08-21T03:34:44;8.83;;;3.03;;
19251;SDS011;9760;50.944;5.304;2022-08-21T03:37:10;12.50;;;3.50;;
19251;SDS011;9760;50.944;5.304;2022-08-21T03:39:37;11.40;;;3.10;;
19251;SDS011;9760;50.944;5.304;2022-08-21T03:42:03;15.50;;;2.97;;
19251;SDS011;9760;50.944;5.304;2022-08-21T03:44:30;9.47;;;3.40;;
19251;SDS011;9760;50.944;5.304;2022-08-21T03:46:56;15.20;;;5.70;;
19251;SDS011;9760;50.944;5.304;2022-08-21T03:49:22;8.03;;;3.13;;
19251;SDS011;9760;50.944;5.304;2022-08-21T03:51:49;14.87;;;3.27;;
19251;SDS011;9760;50.944;5.304;2022-08-21T03:54:15;10.10;;;2.93;;
19251;SDS011;9760;50.944;5.304;2022-08-21T03:56:41;12.93;;;3.27;;
19251;SDS011;9760;50.944;5.304;2022-08-21T03:59:06;7.73;;;3.03;;
19251;SDS011;9760;50.944;5.304;2022-08-21T04:01:32;12.77;;;3.17;;
19251;SDS011;9760;50.944;5.304;2022-08-21T04:03:58;10.03;;;2.93;;
19251;SDS011;9760;50.944;5.304;2022-08-21T04:06:24;11.67;;;2.97;;
19251;SDS011;9760;50.944;5.304;2022-08-21T04:08:51;17.57;;;3.17;;
19251;SDS011;9760;50.944;5.304;2022-08-21T04:11:17;9.73;;;2.67;;
19251;SDS011;9760;50.944;5.304;2022-08-21T04:13:43;10.57;;;2.60;;
19251;SDS011;9760;50.944;5.304;2022-08-21T04:16:09;11.30;;;2.93;;
19251;SDS011;9760;50.944;5.304;2022-08-21T04:18:34;8.40;;;2.57;;
19251;SDS011;9760;50.944;5.304;2022-08-21T04:21:00;14.53;;;2.70;;
19251;SDS011;9760;50.944;5.304;2022-08-21T04:23:27;6.97;;;2.60;;
19251;SDS011;9760;50.944;5.304;2022-08-21T04:25:54;12.80;;;3.10;;
19251;SDS011;9760;50.944;5.304;2022-08-21T04:28:21;8.47;;;2.63;;
19251;SDS011;9760;50.944;5.304;2022-08-21T04:30:49;8.60;;;2.57;;
19251;SDS011;9760;50.944;5.304;2022-08-21T04:33:16;12.20;;;2.53;;
19251;SDS011;9760;50.944;5.304;2022-08-21T04:35:43;8.63;;;2.60;;
19251;SDS011;9760;50.944;5.304;2022-08-21T04:38:09;10.73;;;2.50;;
19251;SDS011;9760;50.944;5.304;2022-08-21T04:40:35;10.30;;;2.83;;
19251;SDS011;9760;50.944;5.304;2022-08-21T04:43:05;12.97;;;2.87;;
19251;SDS011;9760;50.944;5.304;2022-08-21T04:45:37;11.67;;;2.83;;
19251;SDS011;9760;50.944;5.304;2022-08-21T04:48:05;13.27;;;3.23;;
19251;SDS011;9760;50.944;5.304;2022-08-21T04:50:45;12.83;;;2.70;;
19251;SDS011;9760;50.944;5.304;2022-08-21T04:53:19;12.77;;;2.87;;
19251;SDS011;9760;50.944;5.304;2022-08-21T04:55:49;10.43;;;2.60;;
19251;SDS011;9760;50.944;5.304;2022-08-21T04:58:17;11.33;;;2.57;;
19251;SDS011;9760;50.944;5.304;2022-08-21T05:00:45;11.03;;;3.33;;
19251;SDS011;9760;50.944;5.304;2022-08-21T05:03:12;6.93;;;2.50;;
19251;SDS011;9760;50.944;5.304;2022-08-21T05:05:41;7.17;;;2.60;;
19251;SDS011;9760;50.944;5.304;2022-08-21T05:08:08;11.43;;;2.60;;
19251;SDS011;9760;50.944;5.304;2022-08-21T05:10:36;9.73;;;2.97;;
19251;SDS011;9760;50.944;5.304;2022-08-21T05:13:03;9.20;;;2.57;;
19251;SDS011;9760;50.944;5.304;2022-08-21T05:15:31;11.10;;;2.80;;
19251;SDS011;9760;50.944;5.304;2022-08-21T05:17:56;8.87;;;2.70;;
19251;SDS011;9760;50.944;5.304;2022-08-21T05:20:22;12.40;;;2.90;;
19251;SDS011;9760;50.944;5.304;2022-08-21T05:22:48;8.90;;;2.80;;
19251;SDS011;9760;50.944;5.304;2022-08-21T05:25:13;11.10;;;2.27;;
19251;SDS011;9760;50.944;5.304;2022-08-21T05:27:39;7.40;;;2.73;;
19251;SDS011;9760;50.944;5.304;2022-08-21T05:30:06;12.67;;;2.83;;
19251;SDS011;9760;50.944;5.304;2022-08-21T05:32:32;13.30;;;2.73;;
19251;SDS011;9760;50.944;5.304;2022-08-21T05:34:59;6.83;;;2.83;;
19251;SDS011;9760;50.944;5.304;2022-08-21T05:37:24;9.37;;;2.77;;
19251;SDS011;9760;50.944;5.304;2022-08-21T05:39:50;12.50;;;2.90;;
19251;SDS011;9760;50.944;5.304;2022-08-21T05:42:15;17.23;;;2.70;;
19251;SDS011;9760;50.944;5.304;2022-08-21T05:44:41;6.17;;;3.03;;
19251;SDS011;9760;50.944;5.304;2022-08-21T05:47:09;16.07;;;3.40;;
19251;SDS011;9760;50.944;5.304;2022-08-21T05:49:35;10.67;;;3.23;;
19251;SDS011;9760;50.944;5.304;2022-08-21T05:52:02;11.37;;;2.50;;
19251;SDS011;9760;50.944;5.304;2022-08-21T05:54:28;13.33;;;2.77;;
19251;SDS011;9760;50.944;5.304;2022-08-21T05:56:54;6.30;;;3.10;;
19251;SDS011;9760;50.944;5.304;2022-08-21T05:59:20;8.07;;;3.07;;
19251;SDS011;9760;50.944;5.304;2022-08-21T06:01:46;11.43;;;4.20;;
19251;SDS011;9760;50.944;5.304;2022-08-21T06:04:12;7.83;;;3.90;;
19251;SDS011;9760;50.944;5.304;2022-08-21T06:06:38;11.97;;;3.40;;
19251;SDS011;9760;50.944;5.304;2022-08-21T06:09:04;9.10;;;3.07;;
19251;SDS011;9760;50.944;5.304;2022-08-21T06:11:30;9.23;;;2.90;;
19251;SDS011;9760;50.944;5.304;2022-08-21T06:13:57;12.87;;;3.00;;
19251;SDS011;9760;50.944;5.304;2022-08-21T06:16:23;6.40;;;2.40;;
19251;SDS011;9760;50.944;5.304;2022-08-21T06:18:49;7.60;;;2.53;;
19251;SDS011;9760;50.944;5.304;2022-08-21T06:21:15;13.47;;;2.80;;
19251;SDS011;9760;50.944;5.304;2022-08-21T06:23:42;5.93;;;2.13;;
19251;SDS011;9760;50.944;5.304;2022-08-21T06:26:09;8.53;;;3.03;;
19251;SDS011;9760;50.944;5.304;2022-08-21T06:28:37;6.80;;;2.60;;
19251;SDS011;9760;50.944;5.304;2022-08-21T06:31:13;7.63;;;2.80;;
19251;SDS011;9760;50.944;5.304;2022-08-21T06:33:42;9.80;;;2.50;;
19251;SDS011;9760;50.944;5.304;2022-08-21T06:36:08;10.57;;;2.87;;
19251;SDS011;9760;50.944;5.304;2022-08-21T06:38:34;15.23;;;3.50;;
19251;SDS011;9760;50.944;5.304;2022-08-21T06:41:00;10.43;;;2.17;;
19251;SDS011;9760;50.944;5.304;2022-08-21T06:43:26;9.90;;;3.10;;
19251;SDS011;9760;50.944;5.304;2022-08-21T06:45:51;13.73;;;3.30;;
19251;SDS011;9760;50.944;5.304;2022-08-21T06:48:17;8.13;;;2.77;;
19251;SDS011;9760;50.944;5.304;2022-08-21T06:50:43;10.50;;;3.40;;
19251;SDS011;9760;50.944;5.304;2022-08-21T06:53:10;8.83;;;2.20;;
19251;SDS011;9760;50.944;5.304;2022-08-21T06:55:38;11.83;;;2.47;;
19251;SDS011;9760;50.944;5.304;2022-08-21T06:58:04;6.50;;;2.40;;
19251;SDS011;9760;50.944;5.304;2022-08-21T07:00:31;8.47;;;2.57;;
19251;SDS011;9760;50.944;5.304;2022-08-21T07:02:58;8.17;;;2.67;;
19251;SDS011;9760;50.944;5.304;2022-08-21T07:05:27;10.47;;;2.20;;
19251;SDS011;9760;50.944;5.304;2022-08-21T07:07:54;10.83;;;2.27;;
19251;SDS011;9760;50.944;5.304;2022-08-21T07:10:20;11.97;;;3.17;;
19251;SDS011;9760;50.944;5.304;2022-08-21T07:12:45;11.87;;;2.40;;
19251;SDS011;9760;50.944;5.304;2022-08-21T07:15:11;11.10;;;1.90;;
19251;SDS011;9760;50.944;5.304;2022-08-21T07:17:37;6.50;;;2.03;;
19251;SDS011;9760;50.944;5.304;2022-08-21T07:20:03;9.37;;;2.37;;
19251;SDS011;9760;50.944;5.304;2022-08-21T07:22:29;6.70;;;1.90;;
19251;SDS011;9760;50.944;5.304;2022-08-21T07:24:55;9.17;;;2.43;;
19251;SDS011;9760;50.944;5.304;2022-08-21T07:27:21;14.30;;;2.40;;
19251;SDS011;9760;50.944;5.304;2022-08-21T07:29:47;12.50;;;2.13;;
19251;SDS011;9760;50.944;5.304;2022-08-21T07:32:13;13.20;;;1.73;;
19251;SDS011;9760;50.944;5.304;2022-08-21T07:34:39;14.90;;;2.40;;
19251;SDS011;9760;50.944;5.304;2022-08-21T07:37:06;9.57;;;2.50;;
19251;SDS011;9760;50.944;5.304;2022-08-21T07:39:31;9.23;;;2.30;;
19251;SDS011;9760;50.944;5.304;2022-08-21T07:41:57;5.73;;;1.83;;
19251;SDS011;9760;50.944;5.304;2022-08-21T07:44:22;10.80;;;2.60;;
19251;SDS011;9760;50.944;5.304;2022-08-21T07:46:48;13.20;;;2.00;;
19251;SDS011;9760;50.944;5.304;2022-08-21T07:49:14;9.03;;;2.07;;
19251;SDS011;9760;50.944;5.304;2022-08-21T07:51:39;9.37;;;2.17;;
19251;SDS011;9760;50.944;5.304;2022-08-21T07:54:05;9.53;;;2.10;;
19251;SDS011;9760;50.944;5.304;2022-08-21T07:56:31;10.17;;;2.47;;
19251;SDS011;9760;50.944;5.304;2022-08-21T07:58:57;14.77;;;2.60;;
19251;SDS011;9760;50.944;5.304;2022-08-21T08:01:23;7.90;;;2.20;;
19251;SDS011;9760;50.944;5.304;2022-08-21T08:03:49;9.80;;;2.20;;
19251;SDS011;9760;50.944;5.304;2022-08-21T08:06:15;9.70;;;2.60;;
19251;SDS011;9760;50.944;5.304;2022-08-21T08:08:43;12.00;;;2.30;;
19251;SDS011;9760;50.944;5.304;2022-08-21T08:11:09;14.97;;;2.47;;
19251;SDS011;9760;50.944;5.304;2022-08-21T08:13:40;7.70;;;2.10;;
19251;SDS011;9760;50.944;5.304;2022-08-21T08:16:07;10.30;;;1.97;;
19251;SDS011;9760;50.944;5.304;2022-08-21T08:18:33;14.60;;;2.20;;
19251;SDS011;9760;50.944;5.304;2022-08-21T08:20:59;9.13;;;2.17;;
19251;SDS011;9760;50.944;5.304;2022-08-21T08:23:24;13.43;;;2.23;;
19251;SDS011;9760;50.944;5.304;2022-08-21T08:25:51;10.33;;;2.10;;
19251;SDS011;9760;50.944;5.304;2022-08-21T08:28:16;7.50;;;1.93;;
19251;SDS011;9760;50.944;5.304;2022-08-21T08:30:42;10.37;;;2.27;;
19251;SDS011;9760;50.944;5.304;2022-08-21T08:33:08;14.30;;;2.70;;
19251;SDS011;9760;50.944;5.304;2022-08-21T08:35:34;6.17;;;1.60;;
19251;SDS011;9760;50.944;5.304;2022-08-21T08:38:01;6.00;;;2.00;;
19251;SDS011;9760;50.944;5.304;2022-08-21T08:40:41;7.60;;;1.93;;
19251;SDS011;9760;50.944;5.304;2022-08-21T08:43:17;9.37;;;1.87;;
19251;SDS011;9760;50.944;5.304;2022-08-21T08:45:46;9.03;;;1.80;;
19251;SDS011;9760;50.944;5.304;2022-08-21T08:48:14;7.43;;;1.93;;
19251;SDS011;9760;50.944;5.304;2022-08-21T08:50:57;8.13;;;1.70;;
19251;SDS011;9760;50.944;5.304;2022-08-21T08:53:31;3.50;;;1.47;;
19251;SDS011;9760;50.944;5.304;2022-08-21T08:56:01;8.40;;;1.70;;
19251;SDS011;9760;50.944;5.304;2022-08-21T08:58:30;7.40;;;1.53;;
19251;SDS011;9760;50.944;5.304;2022-08-21T09:00:58;8.47;;;1.57;;
19251;SDS011;9760;50.944;5.304;2022-08-21T09:03:25;5.63;;;1.40;;
19251;SDS011;9760;50.944;5.304;2022-08-21T09:14:00;8.70;;;1.70;;
19251;SDS011;9760;50.944;5.304;2022-08-21T09:16:41;5.87;;;1.20;;
19251;SDS011;9760;50.944;5.304;2022-08-21T09:27:23;9.00;;;1.37;;
19251;SDS011;9760;50.944;5.304;2022-08-21T09:29:50;9.77;;;1.63;;
19251;SDS011;9760;50.944;5.304;2022-08-21T09:32:28;8.87;;;1.57;;
19251;SDS011;9760;50.944;5.304;2022-08-21T09:35:03;9.03;;;1.23;;
19251;SDS011;9760;50.944;5.304;2022-08-21T09:38:00;10.40;;;1.90;;
19251;SDS011;9760;50.944;5.304;2022-08-21T09:40:40;5.93;;;1.23;;
19251;SDS011;9760;50.944;5.304;2022-08-21T09:45:37;12.27;;;1.27;;
19251;SDS011;9760;50.944;5.304;2022-08-21T09:50:40;6.73;;;1.57;;
19251;SDS011;9760;50.944;5.304;2022-08-21T09:53:15;8.07;;;1.20;;
19251;SDS011;9760;50.944;5.304;2022-08-21T09:55:50;7.53;;;1.43;;
19251;SDS011;9760;50.944;5.304;2022-08-21T09:58:35;3.97;;;1.10;;
19251;SDS011;9760;50.944;5.304;2022-08-21T10:01:04;7.03;;;1.40;;
19251;SDS011;9760;50.944;5.304;2022-08-21T10:03:31;4.10;;;1.00;;
19251;SDS011;9760;50.944;5.304;2022-08-21T10:05:59;5.40;;;1.03;;
19251;SDS011;9760;50.944;5.304;2022-08-21T10:08:30;5.47;;;1.10;;
19251;SDS011;9760;50.944;5.304;2022-08-21T10:10:57;3.03;;;1.10;;
19251;SDS011;9760;50.944;5.304;2022-08-21T10:16:24;8.80;;;2.00;;
19251;SDS011;9760;50.944;5.304;2022-08-21T10:19:14;7.50;;;1.27;;
19251;SDS011;9760;50.944;5.304;2022-08-21T10:27:11;5.50;;;1.73;;
19251;SDS011;9760;50.944;5.304;2022-08-21T10:41:01;9.00;;;1.67;;
19251;SDS011;9760;50.944;5.304;2022-08-21T10:43:52;6.87;;;2.23;;
19251;SDS011;9760;50.944;5.304;2022-08-21T10:48:56;10.73;;;3.63;;
19251;SDS011;9760;50.944;5.304;2022-08-21T10:54:07;7.43;;;1.17;;
19251;SDS011;9760;50.944;5.304;2022-08-21T10:56:42;8.83;;;1.50;;
19251;SDS011;9760;50.944;5.304;2022-08-21T10:59:26;5.83;;;1.27;;
19251;SDS011;9760;50.944;5.304;2022-08-21T11:02:03;10.07;;;1.80;;
19251;SDS011;9760;50.944;5.304;2022-08-21T11:05:04;9.47;;;2.10;;
19251;SDS011;9760;50.944;5.304;2022-08-21T11:07:57;6.20;;;1.30;;
19251;SDS011;9760;50.944;5.304;2022-08-21T11:13:14;10.80;;;2.13;;
19251;SDS011;9760;50.944;5.304;2022-08-21T11:16:05;7.53;;;1.43;;
19251;SDS011;9760;50.944;5.304;2022-08-21T11:18:34;8.03;;;1.57;;
19251;SDS011;9760;50.944;5.304;2022-08-21T11:21:17;10.73;;;1.60;;
19251;SDS011;9760;50.944;5.304;2022-08-21T11:29:21;8.63;;;1.50;;
19251;SDS011;9760;50.944;5.304;2022-08-21T11:32:00;6.63;;;1.87;;
19251;SDS011;9760;50.944;5.304;2022-08-21T11:42:39;6.90;;;1.47;;
19251;SDS011;9760;50.944;5.304;2022-08-21T11:45:27;9.23;;;1.97;;
19251;SDS011;9760;50.944;5.304;2022-08-21T11:50:57;7.30;;;1.23;;
19251;SDS011;9760;50.944;5.304;2022-08-21T11:55:57;10.73;;;1.47;;
19251;SDS011;9760;50.944;5.304;2022-08-21T11:58:36;9.20;;;1.93;;
19251;SDS011;9760;50.944;5.304;2022-08-21T12:01:08;6.23;;;1.30;;
19251;SDS011;9760;50.944;5.304;2022-08-21T12:03:35;11.27;;;1.50;;
19251;SDS011;9760;50.944;5.304;2022-08-21T12:06:06;10.27;;;1.50;;
19251;SDS011;9760;50.944;5.304;2022-08-21T12:14:10;11.43;;;2.00;;
19251;SDS011;9760;50.944;5.304;2022-08-21T12:16:39;9.67;;;1.87;;
19251;SDS011;9760;50.944;5.304;2022-08-21T12:29:26;12.03;;;1.77;;
19251;SDS011;9760;50.944;5.304;2022-08-21T12:32:00;7.83;;;1.87;;
19251;SDS011;9760;50.944;5.304;2022-08-21T12:34:56;12.63;;;2.60;;
19251;SDS011;9760;50.944;5.304;2022-08-21T12:40:18;14.20;;;5.03;;
19251;SDS011;9760;50.944;5.304;2022-08-21T12:42:51;9.90;;;1.73;;
19251;SDS011;9760;50.944;5.304;2022-08-21T12:45:42;9.83;;;2.00;;
19251;SDS011;9760;50.944;5.304;2022-08-21T12:48:16;10.13;;;2.30;;
19251;SDS011;9760;50.944;5.304;2022-08-21T12:50:54;7.53;;;1.53;;
19251;SDS011;9760;50.944;5.304;2022-08-21T12:53:38;7.77;;;1.70;;
19251;SDS011;9760;50.944;5.304;2022-08-21T12:56:09;13.90;;;2.23;;
19251;SDS011;9760;50.944;5.304;2022-08-21T12:58:39;8.27;;;1.50;;
19251;SDS011;9760;50.944;5.304;2022-08-21T13:03:53;8.10;;;2.13;;
19251;SDS011;9760;50.944;5.304;2022-08-21T13:06:22;10.73;;;1.93;;
19251;SDS011;9760;50.944;5.304;2022-08-21T13:08:51;3.77;;;1.10;;
19251;SDS011;9760;50.944;5.304;2022-08-21T13:11:22;8.77;;;2.07;;
19251;SDS011;9760;50.944;5.304;2022-08-21T13:13:49;7.63;;;1.30;;
19251;SDS011;9760;50.944;5.304;2022-08-21T13:16:25;8.23;;;1.60;;
19251;SDS011;9760;50.944;5.304;2022-08-21T13:19:03;12.10;;;2.27;;
19251;SDS011;9760;50.944;5.304;2022-08-21T13:21:31;9.27;;;1.67;;
19251;SDS011;9760;50.944;5.304;2022-08-21T13:24:10;9.43;;;2.20;;
19251;SDS011;9760;50.944;5.304;2022-08-21T13:26:48;12.10;;;1.80;;
19251;SDS011;9760;50.944;5.304;2022-08-21T13:29:15;5.40;;;1.13;;
19251;SDS011;9760;50.944;5.304;2022-08-21T13:31:47;11.90;;;1.90;;
19251;SDS011;9760;50.944;5.304;2022-08-21T13:34:17;6.73;;;1.70;;
19251;SDS011;9760;50.944;5.304;2022-08-21T13:36:45;3.60;;;1.20;;
19251;SDS011;9760;50.944;5.304;2022-08-21T13:39:12;9.17;;;1.83;;
19251;SDS011;9760;50.944;5.304;2022-08-21T13:41:42;9.03;;;1.97;;
19251;SDS011;9760;50.944;5.304;2022-08-21T13:44:19;10.77;;;1.57;;
19251;SDS011;9760;50.944;5.304;2022-08-21T13:47:04;7.33;;;1.47;;
19251;SDS011;9760;50.944;5.304;2022-08-21T13:49:32;9.87;;;1.77;;
19251;SDS011;9760;50.944;5.304;2022-08-21T13:52:02;11.00;;;1.30;;
19251;SDS011;9760;50.944;5.304;2022-08-21T13:54:33;8.77;;;1.70;;
19251;SDS011;9760;50.944;5.304;2022-08-21T13:56:59;8.20;;;1.50;;
19251;SDS011;9760;50.944;5.304;2022-08-21T13:59:31;11.80;;;1.53;;
19251;SDS011;9760;50.944;5.304;2022-08-21T14:07:01;15.53;;;1.60;;
19251;SDS011;9760;50.944;5.304;2022-08-21T14:09:42;8.10;;;1.83;;
19251;SDS011;9760;50.944;5.304;2022-08-21T14:12:16;7.00;;;1.50;;
19251;SDS011;9760;50.944;5.304;2022-08-21T14:14:44;7.10;;;1.90;;
19251;SDS011;9760;50.944;5.304;2022-08-21T14:17:12;10.17;;;1.50;;
19251;SDS011;9760;50.944;5.304;2022-08-21T14:19:50;8.80;;;1.80;;
19251;SDS011;9760;50.944;5.304;2022-08-21T14:27:33;6.93;;;1.60;;
19251;SDS011;9760;50.944;5.304;2022-08-21T14:30:09;15.03;;;2.00;;
19251;SDS011;9760;50.944;5.304;2022-08-21T14:32:41;13.17;;;1.40;;
19251;SDS011;9760;50.944;5.304;2022-08-21T14:35:07;7.70;;;1.63;;
19251;SDS011;9760;50.944;5.304;2022-08-21T14:37:33;11.57;;;1.93;;
19251;SDS011;9760;50.944;5.304;2022-08-21T14:40:02;6.60;;;1.50;;
19251;SDS011;9760;50.944;5.304;2022-08-21T14:42:29;11.17;;;1.93;;
19251;SDS011;9760;50.944;5.304;2022-08-21T14:44:56;7.17;;;1.40;;
19251;SDS011;9760;50.944;5.304;2022-08-21T14:47:24;11.17;;;1.77;;
19251;SDS011;9760;50.944;5.304;2022-08-21T14:49:50;15.57;;;1.70;;
19251;SDS011;9760;50.944;5.304;2022-08-21T14:52:19;20.40;;;2.03;;
19251;SDS011;9760;50.944;5.304;2022-08-21T14:54:45;8.20;;;1.53;;
19251;SDS011;9760;50.944;5.304;2022-08-21T14:57:10;7.13;;;1.97;;
19251;SDS011;9760;50.944;5.304;2022-08-21T14:59:37;6.27;;;1.33;;
19251;SDS011;9760;50.944;5.304;2022-08-21T15:02:04;8.27;;;1.60;;
19251;SDS011;9760;50.944;5.304;2022-08-21T15:04:31;7.67;;;1.43;;
19251;SDS011;9760;50.944;5.304;2022-08-21T15:06:57;5.50;;;1.40;;
19251;SDS011;9760;50.944;5.304;2022-08-21T15:09:23;8.67;;;1.93;;
19251;SDS011;9760;50.944;5.304;2022-08-21T15:11:48;10.63;;;1.50;;
19251;SDS011;9760;50.944;5.304;2022-08-21T15:14:20;7.77;;;1.47;;
19251;SDS011;9760;50.944;5.304;2022-08-21T15:16:48;12.30;;;3.70;;
19251;SDS011;9760;50.944;5.304;2022-08-21T15:19:15;10.10;;;1.63;;
19251;SDS011;9760;50.944;5.304;2022-08-21T15:21:40;10.87;;;1.70;;
19251;SDS011;9760;50.944;5.304;2022-08-21T15:24:06;5.33;;;1.67;;
19251;SDS011;9760;50.944;5.304;2022-08-21T15:26:32;9.33;;;1.80;;
19251;SDS011;9760;50.944;5.304;2022-08-21T15:29:00;13.73;;;1.93;;
19251;SDS011;9760;50.944;5.304;2022-08-21T15:31:26;14.77;;;1.80;;
19251;SDS011;9760;50.944;5.304;2022-08-21T15:33:52;10.60;;;1.63;;
19251;SDS011;9760;50.944;5.304;2022-08-21T15:36:18;11.27;;;2.07;;
19251;SDS011;9760;50.944;5.304;2022-08-21T15:38:44;10.83;;;1.97;;
19251;SDS011;9760;50.944;5.304;2022-08-21T15:41:10;7.67;;;1.47;;
19251;SDS011;9760;50.944;5.304;2022-08-21T15:43:49;8.20;;;1.93;;
19251;SDS011;9760;50.944;5.304;2022-08-21T15:46:17;6.47;;;1.40;;
19251;SDS011;9760;50.944;5.304;2022-08-21T15:48:45;5.83;;;1.60;;
19251;SDS011;9760;50.944;5.304;2022-08-21T15:51:11;8.33;;;1.73;;
19251;SDS011;9760;50.944;5.304;2022-08-21T15:53:38;8.33;;;2.10;;
19251;SDS011;9760;50.944;5.304;2022-08-21T15:56:05;7.77;;;2.20;;
19251;SDS011;9760;50.944;5.304;2022-08-21T15:58:36;5.83;;;1.80;;
19251;SDS011;9760;50.944;5.304;2022-08-21T16:01:02;12.33;;;2.23;;
19251;SDS011;9760;50.944;5.304;2022-08-21T16:03:27;5.30;;;1.83;;
19251;SDS011;9760;50.944;5.304;2022-08-21T16:05:53;24.80;;;2.30;;
19251;SDS011;9760;50.944;5.304;2022-08-21T16:08:21;14.00;;;2.20;;
19251;SDS011;9760;50.944;5.304;2022-08-21T16:10:48;19.40;;;2.37;;
19251;SDS011;9760;50.944;5.304;2022-08-21T16:13:24;12.67;;;2.07;;
19251;SDS011;9760;50.944;5.304;2022-08-21T16:15:54;11.97;;;2.00;;
19251;SDS011;9760;50.944;5.304;2022-08-21T16:18:20;7.73;;;1.43;;
19251;SDS011;9760;50.944;5.304;2022-08-21T16:20:47;12.60;;;2.27;;
19251;SDS011;9760;50.944;5.304;2022-08-21T16:23:12;9.17;;;1.57;;
19251;SDS011;9760;50.944;5.304;2022-08-21T16:25:39;6.87;;;1.97;;
19251;SDS011;9760;50.944;5.304;2022-08-21T16:28:06;8.00;;;1.57;;
19251;SDS011;9760;50.944;5.304;2022-08-21T16:30:35;8.60;;;2.10;;
19251;SDS011;9760;50.944;5.304;2022-08-21T16:33:01;9.83;;;1.60;;
19251;SDS011;9760;50.944;5.304;2022-08-21T16:35:29;10.53;;;2.10;;
19251;SDS011;9760;50.944;5.304;2022-08-21T16:37:55;8.23;;;2.00;;
19251;SDS011;9760;50.944;5.304;2022-08-21T16:40:21;5.70;;;1.60;;
19251;SDS011;9760;50.944;5.304;2022-08-21T16:42:47;13.30;;;2.30;;
19251;SDS011;9760;50.944;5.304;2022-08-21T16:45:13;6.30;;;1.57;;